sensor_id;sensor_type;location;lat;lon;timestamp;pressure;altitude;pressure_sealevel;temperature;humidity
66164;BME280;52962;51.088;3.096;2023-06-14T00:00:00;101073.47;;;22.28;94.22
66164;BME280;52962;51.088;3.096;2023-06-14T00:02:30;101078.00;;;22.25;95.48
66164;BME280;52962;51.088;3.096;2023-06-14T00:04:59;101074.47;;;22.23;95.14
66164;BME280;52962;51.088;3.096;2023-06-14T00:07:34;101078.22;;;22.15;96.49
66164;BME280;52962;51.088;3.096;2023-06-14T00:10:03;101069.44;;;22.09;96.29
66164;BME280;52962;51.088;3.096;2023-06-14T00:12:33;101067.78;;;22.03;96.41
66164;BME280;52962;51.088;3.096;2023-06-14T00:15:02;101072.34;;;21.98;97.09
66164;BME280;52962;51.088;3.096;2023-06-14T00:17:30;101069.88;;;21.89;97.42
66164;BME280;52962;51.088;3.096;2023-06-14T00:19:59;101068.09;;;21.88;99.13
66164;BME280;52962;51.088;3.096;2023-06-14T00:22:29;101070.81;;;21.86;97.93
66164;BME280;52962;51.088;3.096;2023-06-14T00:24:57;101074.59;;;21.79;98.38
66164;BME280;52962;51.088;3.096;2023-06-14T00:27:38;101067.59;;;21.72;99.50
66164;BME280;52962;51.088;3.096;2023-06-14T00:30:07;101066.66;;;21.75;99.83
66164;BME280;52962;51.088;3.096;2023-06-14T00:32:36;101063.09;;;21.74;99.70
66164;BME280;52962;51.088;3.096;2023-06-14T00:35:04;101068.59;;;21.67;100.00
66164;BME280;52962;51.088;3.096;2023-06-14T00:37:36;101066.88;;;21.64;100.00
66164;BME280;52962;51.088;3.096;2023-06-14T00:40:05;101067.69;;;21.68;100.00
66164;BME280;52962;51.088;3.096;2023-06-14T00:42:33;101069.88;;;21.49;100.00
66164;BME280;52962;51.088;3.096;2023-06-14T00:45:04;101069.94;;;21.46;100.00
66164;BME280;52962;51.088;3.096;2023-06-14T00:47:32;101065.59;;;21.40;100.00
66164;BME280;52962;51.088;3.096;2023-06-14T00:50:01;101065.53;;;21.43;100.00
66164;BME280;52962;51.088;3.096;2023-06-14T00:52:30;101076.28;;;21.42;100.00
66164;BME280;52962;51.088;3.096;2023-06-14T00:54:59;101069.97;;;21.44;100.00
66164;BME280;52962;51.088;3.096;2023-06-14T00:57:29;101079.97;;;21.36;100.00
66164;BME280;52962;51.088;3.096;2023-06-14T00:59:57;101077.63;;;21.18;100.00
66164;BME280;52962;51.088;3.096;2023-06-14T01:02:27;101077.56;;;21.21;100.00
66164;BME280;52962;51.088;3.096;2023-06-14T01:04:55;101077.63;;;21.18;100.00
66164;BME280;52962;51.088;3.096;2023-06-14T01:07:33;101080.28;;;21.18;100.00
66164;BME280;52962;51.088;3.096;2023-06-14T01:10:15;101074.00;;;21.20;100.00
66164;BME280;52962;51.088;3.096;2023-06-14T01:12:55;101074.00;;;21.22;100.00
66164;BME280;52962;51.088;3.096;2023-06-14T01:15:27;101082.06;;;21.19;100.00
66164;BME280;52962;51.088;3.096;2023-06-14T01:17:59;101076.88;;;21.10;100.00
66164;BME280;52962;51.088;3.096;2023-06-14T01:20:32;101080.41;;;21.12;100.00
66164;BME280;52962;51.088;3.096;2023-06-14T01:23:05;101083.25;;;21.03;100.00
66164;BME280;52962;51.088;3.096;2023-06-14T01:25:33;101092.22;;;21.02;100.00
66164;BME280;52962;51.088;3.096;2023-06-14T01:28:04;101084.97;;;21.07;100.00
66164;BME280;52962;51.088;3.096;2023-06-14T01:30:37;101080.41;;;21.12;100.00
66164;BME280;52962;51.088;3.096;2023-06-14T01:33:06;101085.78;;;21.12;100.00
66164;BME280;52962;51.088;3.096;2023-06-14T01:35:34;101087.63;;;21.08;100.00
66164;BME280;52962;51.088;3.096;2023-06-14T01:38:02;101085.09;;;21.01;100.00
66164;BME280;52962;51.088;3.096;2023-06-14T01:40:34;101088.78;;;20.94;100.00
66164;BME280;52962;51.088;3.096;2023-06-14T01:43:03;101081.78;;;20.86;100.00
66164;BME280;52962;51.088;3.096;2023-06-14T01:45:32;101095.28;;;20.80;100.00
66164;BME280;52962;51.088;3.096;2023-06-14T01:48:01;101091.06;;;20.69;100.00
66164;BME280;52962;51.088;3.096;2023-06-14T01:50:30;101088.19;;;20.79;100.00
66164;BME280;52962;51.088;3.096;2023-06-14T01:52:59;101083.53;;;20.89;100.00
66164;BME280;52962;51.088;3.096;2023-06-14T01:55:27;101088.91;;;20.87;100.00
66164;BME280;52962;51.088;3.096;2023-06-14T01:57:57;101085.53;;;20.78;100.00
66164;BME280;52962;51.088;3.096;2023-06-14T02:00:26;101085.56;;;20.76;100.00
66164;BME280;52962;51.088;3.096;2023-06-14T02:02:54;101089.06;;;20.80;100.00
66164;BME280;52962;51.088;3.096;2023-06-14T02:05:22;101087.13;;;20.86;100.00
66164;BME280;52962;51.088;3.096;2023-06-14T02:07:50;101097.00;;;20.84;100.00
66164;BME280;52962;51.088;3.096;2023-06-14T02:10:20;101100.63;;;20.80;100.00
66164;BME280;52962;51.088;3.096;2023-06-14T02:12:48;101094.66;;;20.66;100.00
66164;BME280;52962;51.088;3.096;2023-06-14T02:15:18;101098.34;;;20.59;100.00
66164;BME280;52962;51.088;3.096;2023-06-14T02:17:46;101088.59;;;20.56;100.00
66164;BME280;52962;51.088;3.096;2023-06-14T02:20:16;101092.09;;;20.60;100.00
66164;BME280;52962;51.088;3.096;2023-06-14T02:22:45;101091.09;;;20.66;100.00
66164;BME280;52962;51.088;3.096;2023-06-14T02:25:13;101086.69;;;20.63;100.00
66164;BME280;52962;51.088;3.096;2023-06-14T02:27:42;101090.28;;;20.62;100.00
66164;BME280;52962;51.088;3.096;2023-06-14T02:30:11;101090.38;;;20.56;100.00
66164;BME280;52962;51.088;3.096;2023-06-14T02:32:41;101082.47;;;20.48;100.00
66164;BME280;52962;51.088;3.096;2023-06-14T02:35:12;101092.28;;;20.48;100.00
66164;BME280;52962;51.088;3.096;2023-06-14T02:37:40;101082.53;;;20.45;100.00
66164;BME280;52962;51.088;3.096;2023-06-14T02:40:10;101084.38;;;20.42;100.00
66164;BME280;52962;51.088;3.096;2023-06-14T02:42:38;101086.22;;;20.38;100.00
66164;BME280;52962;51.088;3.096;2023-06-14T02:45:08;101091.63;;;20.31;100.00
66164;BME280;52962;51.088;3.096;2023-06-14T02:47:36;101088.91;;;20.35;100.00
66164;BME280;52962;51.088;3.096;2023-06-14T02:50:07;101087.84;;;20.47;100.00
66164;BME280;52962;51.088;3.096;2023-06-14T02:52:36;101089.69;;;20.43;100.00
66164;BME280;52962;51.088;3.096;2023-06-14T02:55:05;101086.28;;;20.31;100.00
66164;BME280;52962;51.088;3.096;2023-06-14T02:57:35;101090.72;;;20.32;100.00
66164;BME280;52962;51.088;3.096;2023-06-14T03:00:04;101084.53;;;20.30;100.00
66164;BME280;52962;51.088;3.096;2023-06-14T03:02:35;101096.22;;;20.22;100.00
66164;BME280;52962;51.088;3.096;2023-06-14T03:05:06;101088.47;;;20.04;100.00
66164;BME280;52962;51.088;3.096;2023-06-14T03:07:35;101085.72;;;20.10;100.00
66164;BME280;52962;51.088;3.096;2023-06-14T03:10:09;101091.94;;;20.11;100.00
66164;BME280;52962;51.088;3.096;2023-06-14T03:12:42;101092.91;;;20.05;100.00
66164;BME280;52962;51.088;3.096;2023-06-14T03:15:11;101093.22;;;19.84;100.00
66164;BME280;52962;51.088;3.096;2023-06-14T03:17:44;101094.13;;;19.83;100.00
66164;BME280;52962;51.088;3.096;2023-06-14T03:20:16;101098.63;;;19.79;100.00
66164;BME280;52962;51.088;3.096;2023-06-14T03:22:47;101098.53;;;19.87;100.00
66164;BME280;52962;51.088;3.096;2023-06-14T03:25:15;101099.41;;;19.87;100.00
66164;BME280;52962;51.088;3.096;2023-06-14T03:27:46;101097.56;;;19.91;100.00
66164;BME280;52962;51.088;3.096;2023-06-14T03:30:14;101109.09;;;19.96;100.00
66164;BME280;52962;51.088;3.096;2023-06-14T03:32:46;101099.31;;;19.93;100.00
66164;BME280;52962;51.088;3.096;2023-06-14T03:35:14;101107.34;;;19.92;100.00
66164;BME280;52962;51.088;3.096;2023-06-14T03:37:47;101109.16;;;19.90;100.00
66164;BME280;52962;51.088;3.096;2023-06-14T03:40:17;101107.44;;;19.87;100.00
66164;BME280;52962;51.088;3.096;2023-06-14T03:42:50;101116.31;;;19.88;100.00
66164;BME280;52962;51.088;3.096;2023-06-14T03:45:19;101113.66;;;19.88;100.00
66164;BME280;52962;51.088;3.096;2023-06-14T03:47:47;101115.44;;;19.87;100.00
66164;BME280;52962;51.088;3.096;2023-06-14T03:50:18;101119.97;;;19.81;100.00
66164;BME280;52962;51.088;3.096;2023-06-14T03:52:48;101119.84;;;19.91;100.00
66164;BME280;52962;51.088;3.096;2023-06-14T03:55:18;101121.41;;;20.06;100.00
66164;BME280;52962;51.088;3.096;2023-06-14T03:57:49;101119.63;;;20.07;100.00
66164;BME280;52962;51.088;3.096;2023-06-14T04:00:18;101123.19;;;20.07;100.00
66164;BME280;52962;51.088;3.096;2023-06-14T04:02:46;101117.88;;;20.04;100.00
66164;BME280;52962;51.088;3.096;2023-06-14T04:05:15;101123.16;;;20.09;100.00
66164;BME280;52962;51.088;3.096;2023-06-14T04:07:49;101126.72;;;20.09;100.00
66164;BME280;52962;51.088;3.096;2023-06-14T04:10:18;101133.78;;;20.13;100.00
66164;BME280;52962;51.088;3.096;2023-06-14T04:12:47;101137.34;;;20.15;100.00
66164;BME280;52962;51.088;3.096;2023-06-14T04:15:16;101138.16;;;20.19;100.00
66164;BME280;52962;51.088;3.096;2023-06-14T04:17:51;101136.38;;;20.19;100.00
66164;BME280;52962;51.088;3.096;2023-06-14T04:20:25;101127.41;;;20.23;100.00
66164;BME280;52962;51.088;3.096;2023-06-14T04:22:56;101131.84;;;20.24;100.00
66164;BME280;52962;51.088;3.096;2023-06-14T04:25:24;101142.47;;;20.31;100.00
66164;BME280;52962;51.088;3.096;2023-06-14T04:27:55;101144.28;;;20.29;100.00
66164;BME280;52962;51.088;3.096;2023-06-14T04:30:24;101143.38;;;20.28;100.00
66164;BME280;52962;51.088;3.096;2023-06-14T04:32:54;101146.13;;;20.23;100.00
66164;BME280;52962;51.088;3.096;2023-06-14T04:35:23;101144.31;;;20.25;100.00
66164;BME280;52962;51.088;3.096;2023-06-14T04:37:55;101150.56;;;20.24;100.00
66164;BME280;52962;51.088;3.096;2023-06-14T04:40:25;101151.47;;;20.23;100.00
66164;BME280;52962;51.088;3.096;2023-06-14T04:42:53;101149.63;;;20.29;100.00
66164;BME280;52962;51.088;3.096;2023-06-14T04:45:22;101152.41;;;20.21;100.00
66164;BME280;52962;51.088;3.096;2023-06-14T04:47:50;101153.28;;;20.21;100.00
66164;BME280;52962;51.088;3.096;2023-06-14T04:50:22;101149.66;;;20.25;100.00
66164;BME280;52962;51.088;3.096;2023-06-14T04:52:51;101154.16;;;20.22;100.00
66164;BME280;52962;51.088;3.096;2023-06-14T04:55:21;101161.34;;;20.20;100.00
66164;BME280;52962;51.088;3.096;2023-06-14T04:57:50;101158.47;;;20.32;100.00
66164;BME280;52962;51.088;3.096;2023-06-14T05:00:21;101161.13;;;20.34;100.00
66164;BME280;52962;51.088;3.096;2023-06-14T05:02:50;101166.47;;;20.34;100.00
66164;BME280;52962;51.088;3.096;2023-06-14T05:05:20;101170.88;;;20.41;100.00
66164;BME280;52962;51.088;3.096;2023-06-14T05:07:49;101171.72;;;20.44;100.00
66164;BME280;52962;51.088;3.096;2023-06-14T05:10:17;101170.81;;;20.45;100.00
66164;BME280;52962;51.088;3.096;2023-06-14T05:12:48;101168.09;;;20.47;100.00
66164;BME280;52962;51.088;3.096;2023-06-14T05:15:18;101170.72;;;20.50;100.00
66164;BME280;52962;51.088;3.096;2023-06-14T05:17:46;101167.09;;;20.54;100.00
66164;BME280;52962;51.088;3.096;2023-06-14T05:20:20;101168.69;;;20.67;100.00
66164;BME280;52962;51.088;3.096;2023-06-14T05:22:49;101173.03;;;20.74;100.00
66164;BME280;52962;51.088;3.096;2023-06-14T05:25:18;101167.53;;;20.80;100.00
66164;BME280;52962;51.088;3.096;2023-06-14T05:27:48;101164.88;;;20.80;100.00
66164;BME280;52962;51.088;3.096;2023-06-14T05:30:16;101163.03;;;20.82;100.00
66164;BME280;52962;51.088;3.096;2023-06-14T05:32:45;101167.47;;;20.85;100.00
66164;BME280;52962;51.088;3.096;2023-06-14T05:35:13;101161.94;;;20.96;100.00
66164;BME280;52962;51.088;3.096;2023-06-14T05:37:42;101166.28;;;21.03;100.00
66164;BME280;52962;51.088;3.096;2023-06-14T05:40:10;101168.84;;;21.09;100.00
66164;BME280;52962;51.088;3.096;2023-06-14T05:42:39;101162.53;;;21.13;100.00
66164;BME280;52962;51.088;3.096;2023-06-14T05:45:08;101173.13;;;21.19;100.00
66164;BME280;52962;51.088;3.096;2023-06-14T05:47:37;101173.94;;;21.26;100.00
66164;BME280;52962;51.088;3.096;2023-06-14T05:50:06;101168.50;;;21.29;100.00
66164;BME280;52962;51.088;3.096;2023-06-14T05:52:34;101172.88;;;21.34;100.00
66164;BME280;52962;51.088;3.096;2023-06-14T05:55:04;101175.41;;;21.42;100.00
66164;BME280;52962;51.088;3.096;2023-06-14T05:57:32;101173.38;;;21.54;100.00
66164;BME280;52962;51.088;3.096;2023-06-14T06:00:01;101172.34;;;21.62;100.00
66164;BME280;52962;51.088;3.096;2023-06-14T06:02:39;101166.81;;;21.71;100.00
66164;BME280;52962;51.088;3.096;2023-06-14T06:05:07;101181.91;;;21.75;98.31
66164;BME280;52962;51.088;3.096;2023-06-14T06:07:36;101188.78;;;21.86;98.42
66164;BME280;52962;51.088;3.096;2023-06-14T06:10:05;101186.72;;;21.99;97.90
66164;BME280;52962;51.088;3.096;2023-06-14T06:12:34;101191.00;;;22.11;97.97
66164;BME280;52962;51.088;3.096;2023-06-14T06:15:02;101190.81;;;22.18;96.89
66164;BME280;52962;51.088;3.096;2023-06-14T06:17:30;101190.69;;;22.25;96.15
66164;BME280;52962;51.088;3.096;2023-06-14T06:20:20;101192.06;;;22.42;94.40
66164;BME280;52962;51.088;3.096;2023-06-14T06:22:54;101189.84;;;22.61;95.72
66164;BME280;52962;51.088;3.096;2023-06-14T06:25:23;101199.16;;;22.85;95.38
66164;BME280;52962;51.088;3.096;2023-06-14T06:27:53;101199.38;;;23.10;94.38
66164;BME280;52962;51.088;3.096;2023-06-14T06:30:21;101202.34;;;23.33;93.12
66164;BME280;52962;51.088;3.096;2023-06-14T06:32:49;101200.03;;;23.54;92.52
66164;BME280;52962;51.088;3.096;2023-06-14T06:35:19;101195.56;;;23.54;87.21
66164;BME280;52962;51.088;3.096;2023-06-14T06:37:48;101205.78;;;23.72;88.15
66164;BME280;52962;51.088;3.096;2023-06-14T06:40:16;101200.78;;;23.91;86.80
66164;BME280;52962;51.088;3.096;2023-06-14T06:42:44;101192.97;;;23.82;84.65
66164;BME280;52962;51.088;3.096;2023-06-14T06:45:13;101199.94;;;23.89;88.70
66164;BME280;52962;51.088;3.096;2023-06-14T06:47:42;101205.41;;;24.16;87.57
66164;BME280;52962;51.088;3.096;2023-06-14T06:50:10;101198.38;;;24.41;88.68
66164;BME280;52962;51.088;3.096;2023-06-14T06:52:39;101202.72;;;24.45;85.37
66164;BME280;52962;51.088;3.096;2023-06-14T06:55:08;101203.81;;;24.67;84.19
66164;BME280;52962;51.088;3.096;2023-06-14T06:57:38;101215.84;;;24.84;83.95
66164;BME280;52962;51.088;3.096;2023-06-14T07:00:07;101217.31;;;24.94;81.82
66164;BME280;52962;51.088;3.096;2023-06-14T07:02:37;101212.66;;;24.99;82.93
66164;BME280;52962;51.088;3.096;2023-06-14T07:05:05;101218.56;;;25.10;85.21
66164;BME280;52962;51.088;3.096;2023-06-14T07:07:34;101216.97;;;25.31;86.60
66164;BME280;52962;51.088;3.096;2023-06-14T07:10:04;101214.41;;;25.26;79.58
66164;BME280;52962;51.088;3.096;2023-06-14T07:12:32;101217.63;;;25.37;82.94
66164;BME280;52962;51.088;3.096;2023-06-14T07:15:06;101215.69;;;25.41;86.18
66164;BME280;52962;51.088;3.096;2023-06-14T07:17:35;101221.38;;;25.33;86.41
66164;BME280;52962;51.088;3.096;2023-06-14T07:20:05;101229.34;;;25.36;86.48
66164;BME280;52962;51.088;3.096;2023-06-14T07:22:40;101225.34;;;25.48;81.24
66164;BME280;52962;51.088;3.096;2023-06-14T07:25:11;101231.41;;;25.55;80.61
66164;BME280;52962;51.088;3.096;2023-06-14T07:27:42;101230.84;;;25.45;79.28
66164;BME280;52962;51.088;3.096;2023-06-14T07:30:11;101237.50;;;25.60;85.16
66164;BME280;52962;51.088;3.096;2023-06-14T07:32:39;101234.72;;;26.11;79.34
66164;BME280;52962;51.088;3.096;2023-06-14T07:35:08;101236.44;;;26.14;79.12
66164;BME280;52962;51.088;3.096;2023-06-14T07:37:36;101239.47;;;26.28;76.98
66164;BME280;52962;51.088;3.096;2023-06-14T07:40:06;101237.94;;;26.21;71.85
66164;BME280;52962;51.088;3.096;2023-06-14T07:42:36;101241.34;;;26.26;76.95
66164;BME280;52962;51.088;3.096;2023-06-14T07:45:05;101239.47;;;26.28;74.09
66164;BME280;52962;51.088;3.096;2023-06-14T07:47:34;101241.03;;;26.35;74.57
66164;BME280;52962;51.088;3.096;2023-06-14T07:50:03;101238.06;;;26.18;75.02
66164;BME280;52962;51.088;3.096;2023-06-14T07:52:34;101241.25;;;26.29;76.29
66164;BME280;52962;51.088;3.096;2023-06-14T07:55:03;101240.47;;;26.72;76.49
66164;BME280;52962;51.088;3.096;2023-06-14T07:57:32;101239.47;;;26.75;76.83
66164;BME280;52962;51.088;3.096;2023-06-14T08:00:02;101239.84;;;26.65;72.32
66164;BME280;52962;51.088;3.096;2023-06-14T08:02:37;101247.38;;;26.57;74.02
66164;BME280;52962;51.088;3.096;2023-06-14T08:05:06;101254.00;;;26.49;65.65
66164;BME280;52962;51.088;3.096;2023-06-14T08:07:34;101249.94;;;26.60;71.22
66164;BME280;52962;51.088;3.096;2023-06-14T08:10:03;101252.66;;;26.60;63.56
66164;BME280;52962;51.088;3.096;2023-06-14T08:12:31;101243.13;;;26.74;63.33
66164;BME280;52962;51.088;3.096;2023-06-14T08:15:01;101249.66;;;26.90;63.38
66164;BME280;52962;51.088;3.096;2023-06-14T08:17:41;101247.06;;;27.09;67.45
66164;BME280;52962;51.088;3.096;2023-06-14T08:20:11;101243.66;;;27.25;64.29
66164;BME280;52962;51.088;3.096;2023-06-14T08:22:40;101255.41;;;27.24;64.01
66164;BME280;52962;51.088;3.096;2023-06-14T08:25:09;101253.41;;;27.29;63.29
66164;BME280;52962;51.088;3.096;2023-06-14T08:27:39;101248.47;;;27.39;63.79
66164;BME280;52962;51.088;3.096;2023-06-14T08:30:11;101252.81;;;27.43;61.57
66164;BME280;52962;51.088;3.096;2023-06-14T08:32:39;101252.75;;;27.45;68.06
66164;BME280;52962;51.088;3.096;2023-06-14T08:35:07;101247.34;;;27.45;61.15
66164;BME280;52962;51.088;3.096;2023-06-14T08:37:38;101252.63;;;27.48;55.56
66164;BME280;52962;51.088;3.096;2023-06-14T08:40:17;101246.03;;;27.75;55.60
66164;BME280;52962;51.088;3.096;2023-06-14T08:42:48;101253.03;;;27.99;55.27
66164;BME280;52962;51.088;3.096;2023-06-14T08:45:19;101249.66;;;27.94;51.59
66164;BME280;52962;51.088;3.096;2023-06-14T08:47:53;101250.94;;;28.06;53.74
66164;BME280;52962;51.088;3.096;2023-06-14T08:50:25;101242.03;;;28.23;50.99
66164;BME280;52962;51.088;3.096;2023-06-14T08:53:00;101253.09;;;28.37;55.33
66164;BME280;52962;51.088;3.096;2023-06-14T08:55:31;101258.16;;;28.45;55.38
66164;BME280;52962;51.088;3.096;2023-06-14T08:58:04;101253.19;;;28.54;50.19
66164;BME280;52962;51.088;3.096;2023-06-14T09:00:34;101255.53;;;28.43;46.64
66164;BME280;52962;51.088;3.096;2023-06-14T09:03:04;101254.00;;;28.56;46.62
66164;BME280;52962;51.088;3.096;2023-06-14T09:05:32;101253.91;;;28.39;47.97
66164;BME280;52962;51.088;3.096;2023-06-14T09:08:01;101253.25;;;28.72;49.71
66164;BME280;52962;51.088;3.096;2023-06-14T09:10:33;101247.34;;;28.82;46.45
66164;BME280;52962;51.088;3.096;2023-06-14T09:13:04;101255.53;;;28.43;43.95
66164;BME280;52962;51.088;3.096;2023-06-14T09:15:35;101252.75;;;28.63;46.01
66164;BME280;52962;51.088;3.096;2023-06-14T09:18:03;101260.66;;;28.68;41.42
66164;BME280;52962;51.088;3.096;2023-06-14T09:20:33;101262.63;;;28.64;41.61
66164;BME280;52962;51.088;3.096;2023-06-14T09:23:02;101256.34;;;28.83;41.50
66164;BME280;52962;51.088;3.096;2023-06-14T09:25:32;101259.31;;;28.77;42.32
66164;BME280;52962;51.088;3.096;2023-06-14T09:28:09;101265.88;;;28.91;42.80
66164;BME280;52962;51.088;3.096;2023-06-14T09:30:39;101262.69;;;28.82;44.15
66164;BME280;52962;51.088;3.096;2023-06-14T09:33:07;101253.47;;;29.05;44.25
66164;BME280;52962;51.088;3.096;2023-06-14T09:35:36;101254.22;;;28.89;45.05
66164;BME280;52962;51.088;3.096;2023-06-14T09:38:04;101251.22;;;29.13;44.50
66164;BME280;52962;51.088;3.096;2023-06-14T09:40:34;101257.19;;;29.19;44.14
66164;BME280;52962;51.088;3.096;2023-06-14T09:43:06;101258.66;;;29.26;43.75
66164;BME280;52962;51.088;3.096;2023-06-14T09:45:35;101256.25;;;29.03;38.52
66164;BME280;52962;51.088;3.096;2023-06-14T09:48:07;101262.69;;;29.18;41.80
66164;BME280;52962;51.088;3.096;2023-06-14T09:50:36;101258.34;;;29.33;38.29
66164;BME280;52962;51.088;3.096;2023-06-14T09:53:06;101258.41;;;29.31;39.19
66164;BME280;52962;51.088;3.096;2023-06-14T09:55:36;101263.44;;;29.39;37.11
66164;BME280;52962;51.088;3.096;2023-06-14T09:58:07;101261.41;;;29.44;40.92
66164;BME280;52962;51.088;3.096;2023-06-14T10:00:36;101260.81;;;29.37;42.16
66164;BME280;52962;51.088;3.096;2023-06-14T10:03:12;101264.69;;;29.14;37.99
66164;BME280;52962;51.088;3.096;2023-06-14T10:05:44;101268.53;;;29.10;40.71
66164;BME280;52962;51.088;3.096;2023-06-14T10:08:14;101274.56;;;28.98;37.80
66164;BME280;52962;51.088;3.096;2023-06-14T10:10:46;101270.84;;;29.01;41.35
66164;BME280;52962;51.088;3.096;2023-06-14T10:13:15;101271.19;;;29.12;39.84
66164;BME280;52962;51.088;3.096;2023-06-14T10:15:51;101270.59;;;29.22;38.63
66164;BME280;52962;51.088;3.096;2023-06-14T10:18:31;101270.59;;;29.05;36.92
66164;BME280;52962;51.088;3.096;2023-06-14T10:21:05;101274.56;;;28.98;37.10
66164;BME280;52962;51.088;3.096;2023-06-14T10:23:38;101265.22;;;28.86;36.41
66164;BME280;52962;51.088;3.096;2023-06-14T10:26:18;101265.47;;;28.80;33.61
66164;BME280;52962;51.088;3.096;2023-06-14T10:28:56;101262.50;;;28.86;34.86
66164;BME280;52962;51.088;3.096;2023-06-14T10:31:39;101269.44;;;28.92;35.69
66164;BME280;52962;51.088;3.096;2023-06-14T10:34:10;101271.34;;;29.09;35.17
66164;BME280;52962;51.088;3.096;2023-06-14T10:36:41;101266.00;;;29.07;36.57
66164;BME280;52962;51.088;3.096;2023-06-14T10:39:15;101270.84;;;29.01;32.81
66164;BME280;52962;51.088;3.096;2023-06-14T10:41:52;101264.03;;;28.92;33.62
66164;BME280;52962;51.088;3.096;2023-06-14T10:44:49;101256.31;;;29.02;32.67
66164;BME280;52962;51.088;3.096;2023-06-14T10:47:24;101268.50;;;28.93;34.28
66164;BME280;52962;51.088;3.096;2023-06-14T10:49:55;101262.47;;;29.05;34.42
66164;BME280;52962;51.088;3.096;2023-06-14T10:52:26;101259.50;;;28.92;34.71
66164;BME280;52962;51.088;3.096;2023-06-14T10:55:11;101260.06;;;28.99;34.59
66164;BME280;52962;51.088;3.096;2023-06-14T10:57:44;101265.41;;;29.18;35.54
66164;BME280;52962;51.088;3.096;2023-06-14T11:00:19;101264.31;;;29.22;32.92
66164;BME280;52962;51.088;3.096;2023-06-14T11:06:13;101263.59;;;29.18;32.36
66164;BME280;52962;51.088;3.096;2023-06-14T11:09:20;101263.88;;;28.95;32.25
66164;BME280;52962;51.088;3.096;2023-06-14T11:11:56;101262.78;;;29.16;35.37
66164;BME280;52962;51.088;3.096;2023-06-14T11:14:24;101256.47;;;29.16;34.00
66164;BME280;52962;51.088;3.096;2023-06-14T11:16:53;101267.41;;;29.50;35.43
66164;BME280;52962;51.088;3.096;2023-06-14T11:19:21;101262.28;;;29.61;34.67
66164;BME280;52962;51.088;3.096;2023-06-14T11:21:51;101255.34;;;29.73;34.15
66164;BME280;52962;51.088;3.096;2023-06-14T11:24:19;101256.78;;;29.80;33.70
66164;BME280;52962;51.088;3.096;2023-06-14T11:26:48;101263.25;;;29.78;32.13
66164;BME280;52962;51.088;3.096;2023-06-14T11:29:16;101271.16;;;29.65;33.27
66164;BME280;52962;51.088;3.096;2023-06-14T11:31:45;101264.03;;;29.45;32.75
66164;BME280;52962;51.088;3.096;2023-06-14T11:34:13;101248.41;;;29.50;32.95
66164;BME280;52962;51.088;3.096;2023-06-14T11:36:42;101249.69;;;29.43;33.55
66164;BME280;52962;51.088;3.096;2023-06-14T11:39:11;101252.63;;;29.56;35.18
66164;BME280;52962;51.088;3.096;2023-06-14T11:41:42;101246.25;;;29.57;32.89
66164;BME280;52962;51.088;3.096;2023-06-14T11:44:11;101248.47;;;29.49;33.99
66164;BME280;52962;51.088;3.096;2023-06-14T11:46:39;101245.25;;;29.41;35.22
66164;BME280;52962;51.088;3.096;2023-06-14T11:49:08;101239.38;;;29.50;35.54
66164;BME280;52962;51.088;3.096;2023-06-14T11:51:36;101240.81;;;29.57;35.31
66164;BME280;52962;51.088;3.096;2023-06-14T11:54:06;101245.78;;;29.66;36.22
66164;BME280;52962;51.088;3.096;2023-06-14T11:56:36;101244.91;;;29.48;33.73
66164;BME280;52962;51.088;3.096;2023-06-14T11:59:05;101241.63;;;29.59;35.51
66164;BME280;52962;51.088;3.096;2023-06-14T12:01:36;101242.19;;;29.66;35.17
66164;BME280;52962;51.088;3.096;2023-06-14T12:04:06;101239.84;;;29.75;36.39
66164;BME280;52962;51.088;3.096;2023-06-14T12:06:35;101257.66;;;29.81;37.50
66164;BME280;52962;51.088;3.096;2023-06-14T12:09:07;101252.00;;;29.68;37.32
66164;BME280;52962;51.088;3.096;2023-06-14T12:11:42;101253.84;;;29.14;36.69
66164;BME280;52962;51.088;3.096;2023-06-14T12:14:10;101245.25;;;29.41;37.64
66164;BME280;52962;51.088;3.096;2023-06-14T12:16:39;101245.25;;;29.41;36.99
66164;BME280;52962;51.088;3.096;2023-06-14T12:19:11;101248.72;;;29.44;37.56
66164;BME280;52962;51.088;3.096;2023-06-14T12:21:40;101240.50;;;29.63;35.95
66164;BME280;52962;51.088;3.096;2023-06-14T12:24:09;101253.13;;;29.64;36.38
66164;BME280;52962;51.088;3.096;2023-06-14T12:26:41;101245.84;;;29.65;35.97
66164;BME280;52962;51.088;3.096;2023-06-14T12:29:10;101237.63;;;29.49;35.76
66164;BME280;52962;51.088;3.096;2023-06-14T12:31:40;101244.50;;;29.56;37.63
66164;BME280;52962;51.088;3.096;2023-06-14T12:34:09;101240.97;;;29.54;36.37
66164;BME280;52962;51.088;3.096;2023-06-14T12:36:38;101238.06;;;29.40;35.71
66164;BME280;52962;51.088;3.096;2023-06-14T12:39:11;101247.03;;;29.42;35.87
66164;BME280;52962;51.088;3.096;2023-06-14T12:41:39;101247.72;;;29.28;36.52
66164;BME280;52962;51.088;3.096;2023-06-14T12:44:10;101252.75;;;29.36;38.37
66164;BME280;52962;51.088;3.096;2023-06-14T12:46:38;101254.66;;;29.34;36.71
66164;BME280;52962;51.088;3.096;2023-06-14T12:49:09;101248.81;;;29.43;37.20
66164;BME280;52962;51.088;3.096;2023-06-14T12:51:38;101249.75;;;29.42;36.14
66164;BME280;52962;51.088;3.096;2023-06-14T12:54:06;101252.47;;;29.42;37.60
66164;BME280;52962;51.088;3.096;2023-06-14T12:56:34;101256.44;;;29.35;36.75
66164;BME280;52962;51.088;3.096;2023-06-14T12:59:04;101249.63;;;29.26;36.90
66164;BME280;52962;51.088;3.096;2023-06-14T13:01:38;101251.31;;;29.28;36.69
66164;BME280;52962;51.088;3.096;2023-06-14T13:04:06;101249.72;;;29.24;36.39